Time;durP1;ratioP1;P1;durP2;ratioP2;P2;SDS_P1;SDS_P2;PMS_P1;PMS_P2;Temp;Humidity;BMP_temperature;BMP_pressure;BME280_temperature;BME280_humidity;BME280_pressure;Samples;Min_cycle;Max_cycle;Signal;HPM_P1;HPM_P2
2022/09/07 05:59:56;;;;;;;5.25;3.90;;;;;;;;;;10542136;27;20366;-86
2022/09/07 06:04:59;;;;;;;3.78;1.98;;;;;;;;;;10536530;28;20402;-86
2022/09/07 06:10:00;;;;;;;3.47;2.40;;;;;;;;;;10537191;28;20036;-86
2022/09/07 06:15:50;;;;;;;3.83;3.35;;;;;;;;;;10537861;28;20031;-86
2022/09/07 06:20:58;;;;;;;4.72;2.88;;;;;;;;;;10535560;28;20483;-86
2022/09/07 06:26:25;;;;;;;3.55;2.40;;;;;;;;;;10535800;28;20033;-86
2022/09/07 06:31:32;;;;;;;4.00;2.58;;;;;;;;;;10535033;28;20046;-85
2022/09/07 06:36:37;;;;;;;2.58;1.90;;;;;;;;;;10521037;28;20035;-86
2022/09/07 06:41:39;;;;;;;2.65;2.00;;;;;;;;;;10536227;28;20021;-87
2022/09/07 06:46:41;;;;;;;3.50;2.65;;;;;;;;;;10534836;28;20386;-87
2022/09/07 06:51:51;;;;;;;3.45;2.33;;;;;;;;;;10533675;28;20016;-86
2022/09/07 06:56:52;;;;;;;5.22;4.47;;;;;;;;;;10535370;28;20075;-86
2022/09/07 07:01:59;;;;;;;7.13;6.43;;;;;;;;;;10536840;28;20482;-87
2022/09/07 07:07:00;;;;;;;3.63;2.30;;;;;;;;;;10535367;28;20029;-85
2022/09/07 07:12:02;;;;;;;4.90;3.60;;;;;;;;;;10516120;28;20115;-83
2022/09/07 07:17:03;;;;;;;4.90;4.07;;;;;;;;;;10518267;28;20066;-80
2022/09/07 07:22:04;;;;;;;7.95;4.90;;;;;;;;;;10512409;28;20031;-81
2022/09/07 07:27:05;;;;;;;4.70;4.00;;;;;;;;;;10511340;28;20532;-81
2022/09/07 08:05:35;;;;;;;5.68;4.60;;;;;;;;;;10549752;28;20036;-83
2022/09/07 08:16:43;;;;;;;5.40;4.25;;;;;;;;;;10515551;28;20032;-83
2022/09/07 08:32:52;;;;;;;6.18;4.70;;;;;;;;;;10558333;28;20285;-83
2022/09/07 08:38:07;;;;;;;5.72;4.40;;;;;;;;;;10552990;28;20130;-82
2022/09/07 08:43:53;;;;;;;4.32;3.40;;;;;;;;;;10556321;28;20055;-82
2022/09/07 08:49:18;;;;;;;5.55;4.07;;;;;;;;;;10554845;28;20059;-82
2022/09/07 08:54:31;;;;;;;7.53;3.47;;;;;;;;;;10563142;28;20035;-85
2022/09/07 08:59:33;;;;;;;6.00;3.20;;;;;;;;;;10560474;28;20032;-82
2022/09/07 09:10:32;;;;;;;6.45;3.78;;;;;;;;;;10510120;28;20040;-82
2022/09/07 09:16:26;;;;;;;5.00;3.60;;;;;;;;;;10529232;28;20043;-82
2022/09/07 09:21:51;;;;;;;5.65;3.40;;;;;;;;;;10552012;28;20178;-83
2022/09/07 09:27:25;;;;;;;5.53;3.70;;;;;;;;;;10551945;28;20405;-83
2022/09/07 09:33:14;;;;;;;7.53;4.30;;;;;;;;;;10389043;28;20025;-84
2022/09/07 09:44:02;;;;;;;6.07;4.07;;;;;;;;;;10389808;28;20118;-83
2022/09/07 09:49:17;;;;;;;4.47;3.25;;;;;;;;;;10373842;28;20038;-82
2022/09/07 09:54:22;;;;;;;5.30;3.30;;;;;;;;;;10414975;28;20051;-82
2022/09/07 09:59:28;;;;;;;6.05;3.88;;;;;;;;;;10565297;28;20043;-81
2022/09/07 10:04:47;;;;;;;4.90;3.90;;;;;;;;;;10564780;28;20055;-83
2022/09/07 10:09:48;;;;;;;;;;;;;;;;;;10564040;28;20482;-82
2022/09/07 10:15:34;;;;;;;4.85;3.92;;;;;;;;;;10564683;28;19967;-82
2022/09/07 10:20:37;;;;;;;5.28;4.57;;;;;;;;;;10544971;28;20063;-81
2022/09/07 10:25:43;;;;;;;5.90;4.60;;;;;;;;;;10558766;28;20163;-82
2022/09/07 10:31:08;;;;;;;6.57;5.25;;;;;;;;;;10543642;28;20047;-83
2022/09/07 10:36:38;;;;;;;5.82;4.82;;;;;;;;;;10578357;28;20032;-82
2022/09/07 10:41:48;;;;;;;5.88;5.05;;;;;;;;;;10562555;28;20039;-82
2022/09/07 10:47:06;;;;;;;5.45;4.95;;;;;;;;;;10588107;28;20047;-82
2022/09/07 10:52:10;;;;;;;6.20;5.60;;;;;;;;;;10588806;28;20035;-82
2022/09/07 10:57:34;;;;;;;5.70;5.10;;;;;;;;;;10585397;28;20174;-84
2022/09/07 11:02:35;;;;;;;7.80;6.63;;;;;;;;;;10569285;28;20449;-84
2022/09/07 11:07:57;;;;;;;6.85;5.18;;;;;;;;;;10570398;28;20074;-83
2022/09/07 11:13:28;;;;;;;5.75;5.25;;;;;;;;;;10562302;28;20036;-84
2022/09/07 11:18:44;;;;;;;6.25;5.32;;;;;;;;;;10570786;28;20071;-83
2022/09/07 11:24:29;;;;;;;6.90;5.50;;;;;;;;;;10569408;28;20032;-83
2022/09/07 11:29:58;;;;;;;5.78;5.18;;;;;;;;;;10480697;28;20063;-84
2022/09/07 11:35:13;;;;;;;5.80;5.20;;;;;;;;;;10568355;28;20433;-84
2022/09/07 11:40:42;;;;;;;6.93;4.88;;;;;;;;;;10565212;28;20040;-84
2022/09/07 11:46:11;;;;;;;6.13;5.07;;;;;;;;;;10563834;28;20109;-84
2022/09/07 11:51:55;;;;;;;5.97;5.25;;;;;;;;;;10563362;28;20048;-84
2022/09/07 11:57:27;;;;;;;6.18;5.57;;;;;;;;;;10479630;28;20078;-84
2022/09/07 12:03:14;;;;;;;6.35;5.18;;;;;;;;;;10564797;28;20036;-84
2022/09/07 12:08:25;;;;;;;9.88;8.55;;;;;;;;;;10564037;28;20528;-84
2022/09/07 12:13:35;;;;;;;7.32;5.72;;;;;;;;;;10565055;28;20061;-83
2022/09/07 12:18:41;;;;;;;9.00;8.10;;;;;;;;;;10562254;28;20043;-85
2022/09/07 12:24:23;;;;;;;6.38;5.78;;;;;;;;;;10561768;28;20035;-85
2022/09/07 12:35:36;;;;;;;6.57;5.70;;;;;;;;;;10563226;28;20055;-84
2022/09/07 12:40:37;;;;;;;5.95;4.72;;;;;;;;;;10564183;28;20039;-84
2022/09/07 12:45:38;;;;;;;8.30;4.38;;;;;;;;;;10561189;28;20032;-83
2022/09/07 12:50:44;;;;;;;6.45;5.32;;;;;;;;;;10558387;28;20043;-82
2022/09/07 12:55:50;;;;;;;4.90;4.22;;;;;;;;;;10571306;28;20059;-81
2022/09/07 13:01:08;;;;;;;5.57;4.50;;;;;;;;;;10586295;28;20036;-82
2022/09/07 13:06:19;;;;;;;8.15;7.35;;;;;;;;;;10556393;28;20035;-80
2022/09/07 13:11:20;;;;;;;4.53;4.05;;;;;;;;;;10561813;28;20031;-80
2022/09/07 13:16:30;;;;;;;5.90;5.40;;;;;;;;;;10561925;28;20040;-81
2022/09/07 13:21:33;;;;;;;6.40;4.78;;;;;;;;;;10564880;28;20063;-80
2022/09/07 13:26:52;;;;;;;8.07;6.72;;;;;;;;;;10572143;28;20119;-81
2022/09/07 13:32:14;;;;;;;4.70;3.95;;;;;;;;;;10560240;28;20490;-83
2022/09/07 13:37:20;;;;;;;7.05;6.45;;;;;;;;;;10545820;28;20035;-84
2022/09/07 13:42:26;;;;;;;6.30;5.20;;;;;;;;;;10540998;28;20032;-83
2022/09/07 13:47:39;;;;;;;7.28;5.55;;;;;;;;;;10544996;28;20093;-82
2022/09/07 13:52:59;;;;;;;6.35;5.75;;;;;;;;;;10543435;28;20028;-80
2022/09/07 13:58:10;;;;;;;7.80;6.40;;;;;;;;;;10544577;28;20429;-82
2022/09/07 14:03:16;;;;;;;6.47;5.53;;;;;;;;;;10549889;28;20552;-81
2022/09/07 14:08:24;;;;;;;5.70;4.18;;;;;;;;;;10545220;28;20075;-80
2022/09/07 14:13:29;;;;;;;5.82;4.15;;;;;;;;;;10543480;28;20032;-81
2022/09/07 14:18:31;;;;;;;5.93;4.30;;;;;;;;;;10547989;28;20040;-81
2022/09/07 14:23:40;;;;;;;5.20;3.60;;;;;;;;;;10553628;28;20433;-81
2022/09/07 14:28:41;;;;;;;5.33;4.00;;;;;;;;;;10574091;28;20039;-82
2022/09/07 14:33:53;;;;;;;4.90;4.20;;;;;;;;;;10553536;28;20055;-81
2022/09/07 14:38:55;;;;;;;5.63;3.90;;;;;;;;;;10551992;28;20048;-83
2022/09/07 14:43:57;;;;;;;5.80;3.83;;;;;;;;;;10552134;28;20134;-82
2022/09/07 14:49:00;;;;;;;5.15;3.40;;;;;;;;;;10542463;28;20077;-83
2022/09/07 14:54:03;;;;;;;5.47;3.10;;;;;;;;;;10545991;28;20035;-83
2022/09/07 14:59:42;;;;;;;4.90;3.78;;;;;;;;;;10544025;28;20118;-86
2022/09/07 15:04:44;;;;;;;5.72;3.30;;;;;;;;;;10393625;28;20038;-82
2022/09/07 15:09:45;;;;;;;4.90;3.05;;;;;;;;;;10493185;28;20047;-81
2022/09/07 15:14:47;;;;;;;6.30;3.17;;;;;;;;;;10559708;28;20048;-82
2022/09/07 15:19:49;;;;;;;4.00;3.10;;;;;;;;;;10560534;28;20493;-82
2022/09/07 15:24:50;;;;;;;7.32;2.92;;;;;;;;;;10562422;28;20036;-83
2022/09/07 15:29:51;;;;;;;3.75;2.88;;;;;;;;;;10559190;28;20043;-79
2022/09/07 15:34:52;;;;;;;3.53;2.83;;;;;;;;;;10556086;28;20107;-84
2022/09/07 15:39:53;;;;;;;6.60;2.90;;;;;;;;;;10560314;28;20032;-81
2022/09/07 15:44:54;;;;;;;4.15;2.60;;;;;;;;;;10558490;28;20036;-83
2022/09/07 15:49:55;;;;;;;3.42;2.85;;;;;;;;;;10559784;28;20033;-82
2022/09/07 15:54:56;;;;;;;7.50;3.70;;;;;;;;;;10566854;28;20047;-83
2022/09/07 15:59:59;;;;;;;4.18;2.40;;;;;;;;;;10580150;28;20036;-85
2022/09/07 16:05:03;;;;;;;3.58;3.22;;;;;;;;;;10571813;28;20032;-84
2022/09/07 16:10:04;;;;;;;4.22;2.10;;;;;;;;;;10569817;28;20052;-83
2022/09/07 16:15:06;;;;;;;3.22;1.80;;;;;;;;;;10556225;28;20449;-80
2022/09/07 16:20:14;;;;;;;2.80;2.03;;;;;;;;;;10567346;28;20067;-83
2022/09/07 16:25:15;;;;;;;5.35;2.67;;;;;;;;;;10566646;28;20039;-84
2022/09/07 16:30:16;;;;;;;3.90;1.85;;;;;;;;;;10568598;28;20052;-83
